Time;durP1;ratioP1;P1;durP2;ratioP2;P2;SDS_P1;SDS_P2;PMS_P1;PMS_P2;Temp;Humidity;BMP_temperature;BMP_pressure;BME280_temperature;BME280_humidity;BME280_pressure;Samples;Min_cycle;Max_cycle;Signal;HPM_P1;HPM_P2
2021/08/07 00:01:54;;;;;;;7.93;3.13;;;;;;;20.85;100.00;95644.69;5033408;28;20488;-54
2021/08/07 00:04:23;;;;;;;5.30;3.38;;;;;;;20.78;100.00;95646.66;5031774;28;20774;-52
2021/08/07 00:06:51;;;;;;;3.78;2.97;;;;;;;20.63;100.00;95639.84;5028256;28;20061;-51
2021/08/07 00:09:20;;;;;;;5.22;3.13;;;;;;;20.72;100.00;95628.84;5048128;28;20073;-49
2021/08/07 00:11:48;;;;;;;6.05;2.95;;;;;;;20.75;100.00;95628.34;5030639;28;20069;-54
2021/08/07 00:14:18;;;;;;;5.07;3.13;;;;;;;20.76;100.00;95625.47;5012311;28;20077;-51
2021/08/07 00:16:47;;;;;;;3.30;2.80;;;;;;;21.12;100.00;95628.19;5032514;28;20081;-55
2021/08/07 00:19:15;;;;;;;4.15;3.00;;;;;;;20.61;100.00;95622.38;5011617;28;20077;-50
2021/08/07 00:21:44;;;;;;;5.15;3.17;;;;;;;20.82;100.00;95615.69;5018261;28;20077;-55
2021/08/07 00:24:12;;;;;;;4.95;3.22;;;;;;;20.89;100.00;95621.78;5017976;28;20092;-48
2021/08/07 00:26:41;;;;;;;5.60;2.97;;;;;;;20.69;100.00;95631.97;5014365;28;20076;-51
2021/08/07 00:29:09;;;;;;;7.30;3.10;;;;;;;20.57;100.00;95631.91;5039077;28;20523;-52
2021/08/07 00:31:39;;;;;;;5.82;3.67;;;;;;;20.84;100.00;95637.69;5030508;28;20296;-50
2021/08/07 00:34:07;;;;;;;4.57;3.45;;;;;;;20.78;100.00;95630.56;5030197;28;20045;-48
2021/08/07 00:36:36;;;;;;;6.20;3.53;;;;;;;19.92;100.00;95640.50;5031940;28;20124;-53
2021/08/07 00:39:04;;;;;;;4.82;3.60;;;;;;;20.27;100.00;95648.75;5038095;28;20056;-48
2021/08/07 00:41:33;;;;;;;5.97;3.65;;;;;;;20.65;100.00;95649.50;5027532;28;20068;-54
2021/08/07 00:44:01;;;;;;;6.13;3.78;;;;;;;21.07;100.00;95636.94;5036483;28;20081;-53
2021/08/07 00:46:30;;;;;;;7.05;3.60;;;;;;;21.00;100.00;95637.03;5033447;28;20069;-56
2021/08/07 00:49:00;;;;;;;5.18;3.53;;;;;;;20.48;100.00;95639.44;5034213;28;20072;-56
2021/08/07 00:51:28;;;;;;;3.88;3.42;;;;;;;20.79;100.00;95633.03;5029634;28;20076;-55
2021/08/07 00:53:58;;;;;;;4.63;3.45;;;;;;;20.33;100.00;95625.59;5036781;28;20669;-54
2021/08/07 00:56:27;;;;;;;5.30;3.50;;;;;;;20.97;100.00;95623.28;5033126;28;20577;-49
2021/08/07 00:58:55;;;;;;;5.22;3.90;;;;;;;21.00;100.00;95614.78;5032101;28;20076;-48
2021/08/07 01:01:25;;;;;;;5.53;3.30;;;;;;;20.84;100.00;95617.06;5030098;28;20072;-52
2021/08/07 01:03:55;;;;;;;6.47;3.80;;;;;;;20.88;100.00;95613.94;5040573;28;20064;-58
2021/08/07 01:06:32;;;;;;;6.45;3.90;;;;;;;21.18;100.00;95620.06;5031953;28;20068;-56
2021/08/07 01:09:08;;;;;;;8.52;3.92;;;;;;;20.71;100.00;95611.91;5030763;28;20062;-55
2021/08/07 01:11:42;;;;;;;6.28;4.10;;;;;;;19.70;100.00;95610.72;5031651;28;20057;-58
2021/08/07 01:14:10;;;;;;;6.57;4.05;;;;;;;19.55;100.00;95597.69;5036811;28;20082;-56
2021/08/07 01:16:42;;;;;;;5.63;4.07;;;;;;;19.45;100.00;95602.72;5028462;28;20558;-57
2021/08/07 01:19:14;;;;;;;7.90;4.00;;;;;;;19.75;100.00;95594.00;5025270;28;20076;-54
2021/08/07 01:21:53;;;;;;;5.65;4.43;;;;;;;19.48;100.00;95596.94;5024854;28;20076;-55
2021/08/07 01:24:25;;;;;;;5.65;4.22;;;;;;;19.58;100.00;95599.06;5031668;28;20071;-52
2021/08/07 01:27:05;;;;;;;6.80;5.25;;;;;;;19.92;100.00;95601.22;5029623;28;20542;-52
2021/08/07 01:29:34;;;;;;;;;;;;;;;20.32;100.00;95594.53;5020398;28;20503;-57
2021/08/07 01:32:03;;;;;;;6.82;4.80;;;;;;;20.01;100.00;95604.38;5028634;28;20398;-55
2021/08/07 01:34:32;;;;;;;7.70;5.22;;;;;;;20.45;100.00;95598.91;5025464;28;20073;-59
2021/08/07 01:37:01;;;;;;;7.70;5.20;;;;;;;20.28;100.00;95588.81;5030323;28;20073;-56
2021/08/07 01:39:29;;;;;;;8.23;5.25;;;;;;;19.84;100.00;95590.78;5038979;28;20067;-55
2021/08/07 01:41:58;;;;;;;8.73;5.15;;;;;;;19.15;100.00;95579.34;5032086;28;20056;-55
2021/08/07 01:44:28;;;;;;;6.78;4.85;;;;;;;18.69;100.00;95564.50;5026428;28;20076;-50
2021/08/07 01:46:59;;;;;;;7.05;4.70;;;;;;;19.83;100.00;95567.78;5022146;28;20033;-53
2021/08/07 01:49:32;;;;;;;8.35;5.13;;;;;;;20.43;100.00;95569.66;5024135;28;20073;-54
2021/08/07 01:52:05;;;;;;;6.53;4.80;;;;;;;19.85;100.00;95568.34;5032138;28;20065;-56
2021/08/07 01:54:37;;;;;;;8.30;4.63;;;;;;;20.25;100.00;95553.63;5039287;28;20042;-55
2021/08/07 01:57:09;;;;;;;11.73;5.05;;;;;;;19.62;100.00;95565.53;5023801;28;20073;-50
2021/08/07 01:59:41;;;;;;;5.90;4.50;;;;;;;19.76;100.00;95560.88;5019174;28;20065;-54
2021/08/07 02:02:09;;;;;;;6.78;4.95;;;;;;;20.70;100.00;95571.97;5022876;28;20456;-55
2021/08/07 02:04:39;;;;;;;7.55;5.10;;;;;;;20.91;100.00;95578.63;5027877;28;20463;-57
2021/08/07 02:07:08;;;;;;;10.07;4.82;;;;;;;20.78;100.00;95579.66;5024752;28;20043;-55
2021/08/07 02:09:38;;;;;;;7.80;4.65;;;;;;;20.97;100.00;95564.31;5033517;28;20073;-57
2021/08/07 02:12:07;;;;;;;7.93;4.93;;;;;;;20.66;100.00;95568.13;5024211;28;20522;-50
2021/08/07 02:14:37;;;;;;;7.40;4.60;;;;;;;20.71;100.00;95570.91;5024004;28;20111;-57
2021/08/07 02:17:07;;;;;;;5.78;4.38;;;;;;;20.36;100.00;95572.41;5029754;28;20046;-57
2021/08/07 02:19:38;;;;;;;7.18;4.95;;;;;;;20.18;100.00;95563.63;5023851;28;20036;-53
2021/08/07 02:22:08;;;;;;;5.82;4.68;;;;;;;19.67;100.00;95558.47;5026613;28;20084;-54
2021/08/07 02:24:37;;;;;;;9.07;4.78;;;;;;;19.30;100.00;95570.16;5024771;28;20069;-56
2021/08/07 02:27:06;;;;;;;7.53;4.93;;;;;;;19.70;100.00;95565.25;5028248;28;20057;-50
2021/08/07 02:29:36;;;;;;;8.07;4.80;;;;;;;19.54;100.00;95560.47;5024533;28;20061;-50
2021/08/07 02:32:05;;;;;;;5.15;4.53;;;;;;;20.14;100.00;95558.72;5022229;28;20076;-57
2021/08/07 02:34:35;;;;;;;6.10;4.27;;;;;;;20.46;100.00;95563.84;5024365;28;20138;-51
2021/08/07 02:37:04;;;;;;;5.93;4.80;;;;;;;20.77;100.00;95565.44;5031976;28;20065;-51
2021/08/07 02:39:33;;;;;;;10.90;5.53;;;;;;;20.70;100.00;95555.88;5021791;28;20134;-55
2021/08/07 02:42:03;;;;;;;6.93;4.80;;;;;;;20.68;100.00;95552.63;5028930;28;20069;-56
2021/08/07 02:44:32;;;;;;;8.23;4.80;;;;;;;20.68;100.00;95541.91;5033227;28;20079;-56
2021/08/07 02:47:00;;;;;;;6.57;4.90;;;;;;;20.82;100.00;95556.75;5029914;28;20510;-55
2021/08/07 02:49:29;;;;;;;10.27;4.40;;;;;;;20.66;100.00;95554.72;5023202;28;20065;-54
2021/08/07 02:51:59;;;;;;;9.05;4.60;;;;;;;20.70;100.00;95563.94;5023460;28;20092;-55
2021/08/07 02:54:28;;;;;;;;;;;;;;;20.79;100.00;95551.84;5026393;28;20066;-58
2021/08/07 02:56:56;;;;;;;5.97;4.38;;;;;;;19.49;100.00;95555.78;5027859;28;20367;-53
2021/08/07 02:59:25;;;;;;;7.15;5.22;;;;;;;19.19;100.00;95542.31;5025646;28;20544;-56
2021/08/07 03:01:54;;;;;;;9.88;5.80;;;;;;;19.47;100.00;95532.97;5026129;28;20081;-56
2021/08/07 03:04:22;;;;;;;6.82;5.50;;;;;;;19.18;100.00;95533.47;5005110;28;20524;-58
2021/08/07 03:06:51;;;;;;;8.57;5.53;;;;;;;20.13;100.00;95524.97;5019574;28;20069;-57
2021/08/07 03:09:20;;;;;;;8.45;5.10;;;;;;;20.59;100.00;95536.06;5024954;28;20069;-53
2021/08/07 03:11:49;;;;;;;9.23;4.70;;;;;;;20.63;100.00;95539.91;5019780;28;20068;-53
2021/08/07 03:14:17;;;;;;;10.52;4.95;;;;;;;20.66;100.00;95539.47;5006707;28;20120;-55
2021/08/07 03:16:46;;;;;;;7.35;4.78;;;;;;;20.33;100.00;95531.88;5010810;28;20088;-55
2021/08/07 03:19:15;;;;;;;14.55;5.20;;;;;;;19.53;100.00;95540.91;5027420;28;20065;-58
2021/08/07 03:21:43;;;;;;;11.60;6.70;;;;;;;19.75;100.00;95535.97;5030191;28;20072;-53
2021/08/07 03:24:11;;;;;;;17.45;10.00;;;;;;;20.52;100.00;95540.72;5027879;28;20129;-56
2021/08/07 03:26:41;;;;;;;9.15;5.93;;;;;;;20.69;100.00;95544.38;5030791;28;20092;-57
2021/08/07 03:29:10;;;;;;;10.63;5.10;;;;;;;20.70;100.00;95547.84;5030046;28;20077;-54
2021/08/07 03:31:38;;;;;;;9.00;5.10;;;;;;;20.69;100.00;95552.41;5032858;28;20390;-51
2021/08/07 03:34:07;;;;;;;9.90;5.10;;;;;;;20.79;100.00;95547.28;5033268;28;20451;-52
2021/08/07 03:36:35;;;;;;;8.45;4.57;;;;;;;20.43;100.00;95537.50;5029015;28;20065;-57
2021/08/07 03:39:06;;;;;;;9.43;5.43;;;;;;;19.93;100.00;95527.09;5029064;28;20072;-52
2021/08/07 03:41:34;;;;;;;9.80;5.85;;;;;;;19.78;100.00;95526.66;5027920;28;20466;-51
2021/08/07 03:44:04;;;;;;;10.32;5.82;;;;;;;20.43;100.00;95529.47;5013009;28;20836;-51
2021/08/07 03:46:33;;;;;;;8.75;5.82;;;;;;;20.21;100.00;95526.50;5028106;28;20562;-51
2021/08/07 03:49:01;;;;;;;8.25;5.25;;;;;;;20.59;100.00;95536.88;5017379;28;20070;-52
2021/08/07 03:51:30;;;;;;;10.00;5.70;;;;;;;20.79;100.00;95531.22;5028735;28;20076;-59
2021/08/07 03:53:58;;;;;;;7.38;5.75;;;;;;;20.91;100.00;95527.72;5021415;28;20586;-49
2021/08/07 03:56:27;;;;;;;8.07;5.90;;;;;;;20.39;100.00;95525.63;5003096;28;20104;-51
2021/08/07 03:58:55;;;;;;;8.30;5.43;;;;;;;19.55;100.00;95514.78;5035482;28;20077;-52
2021/08/07 04:01:26;;;;;;;8.68;5.78;;;;;;;19.79;100.00;95510.41;5028524;28;20068;-53
2021/08/07 04:03:55;;;;;;;8.27;5.50;;;;;;;19.66;100.00;95514.06;5029747;28;20104;-56
2021/08/07 04:06:28;;;;;;;8.80;5.70;;;;;;;19.70;100.00;95514.41;5022418;28;20076;-57
2021/08/07 04:08:57;;;;;;;8.93;5.68;;;;;;;20.26;100.00;95501.72;5018300;28;20531;-54
2021/08/07 04:11:25;;;;;;;8.18;5.15;;;;;;;19.60;100.00;95506.09;5025715;28;20093;-52
2021/08/07 04:13:54;;;;;;;7.65;4.95;;;;;;;20.66;100.00;95511.88;5035134;28;20085;-53
2021/08/07 04:16:22;;;;;;;9.45;5.28;;;;;;;19.56;100.00;95507.56;5014241;28;20081;-57
2021/08/07 04:18:52;;;;;;;6.70;5.28;;;;;;;21.15;100.00;95499.84;5020545;28;20077;-58
2021/08/07 04:21:20;;;;;;;9.68;5.45;;;;;;;21.40;100.00;95513.03;5028982;28;20072;-54
2021/08/07 04:23:49;;;;;;;10.75;5.10;;;;;;;21.45;100.00;95513.16;5030821;28;20073;-57
2021/08/07 04:26:18;;;;;;;10.00;4.88;;;;;;;22.03;100.00;95509.50;5023152;28;20172;-56
2021/08/07 04:28:46;;;;;;;8.88;4.80;;;;;;;21.34;100.00;95503.25;5044027;28;20527;-56
2021/08/07 04:31:14;;;;;;;9.43;4.90;;;;;;;21.70;100.00;95514.72;5028591;28;20103;-55
2021/08/07 04:33:43;;;;;;;5.88;4.65;;;;;;;21.69;100.00;95508.56;5031517;28;20567;-54
2021/08/07 04:36:13;;;;;;;7.85;4.60;;;;;;;21.93;100.00;95517.34;5029086;28;20065;-58
2021/08/07 04:38:41;;;;;;;7.47;5.00;;;;;;;22.21;100.00;95523.81;5026492;28;20076;-57
2021/08/07 04:41:10;;;;;;;12.43;5.43;;;;;;;22.56;100.00;95536.22;5028802;28;20499;-56
2021/08/07 04:43:38;;;;;;;6.68;4.90;;;;;;;24.72;79.65;95536.16;5037008;28;20268;-56
2021/08/07 04:46:07;;;;;;;8.38;4.60;;;;;;;25.87;69.01;95541.81;5030436;28;20057;-52
2021/08/07 04:48:35;;;;;;;7.30;4.90;;;;;;;27.02;60.28;95540.75;5021069;28;20077;-55
2021/08/07 04:51:04;;;;;;;7.38;4.70;;;;;;;27.75;55.04;95543.06;5012754;28;20069;-56
2021/08/07 04:53:34;;;;;;;5.68;3.60;;;;;;;26.20;62.27;95539.78;5007290;28;20061;-56
2021/08/07 04:56:02;;;;;;;5.95;3.97;;;;;;;26.05;67.52;95543.25;5005396;28;20085;-56
2021/08/07 04:58:31;;;;;;;5.45;3.70;;;;;;;25.19;76.19;95544.41;5007395;28;20268;-53
2021/08/07 05:00:59;;;;;;;5.50;3.67;;;;;;;24.46;86.16;95545.88;5021149;28;20076;-54
2021/08/07 05:03:28;;;;;;;6.57;4.10;;;;;;;24.59;87.95;95538.19;5024792;28;20053;-54
2021/08/07 05:05:57;;;;;;;8.65;4.38;;;;;;;24.13;95.25;95545.78;5023157;28;20064;-51
2021/08/07 05:08:25;;;;;;;6.85;4.07;;;;;;;23.97;98.45;95551.25;5024673;28;20073;-56
2021/08/07 05:10:56;;;;;;;11.43;4.70;;;;;;;24.03;98.58;95539.47;5033430;28;20516;-54
2021/08/07 05:13:25;;;;;;;10.25;5.22;;;;;;;23.47;100.00;95544.94;5025929;28;20554;-55
2021/08/07 05:15:53;;;;;;;7.90;4.65;;;;;;;23.44;100.00;95540.88;5028372;28;20077;-59
2021/08/07 05:18:22;;;;;;;12.25;5.00;;;;;;;22.75;100.00;95537.66;5030388;28;20072;-54
2021/08/07 05:20:50;;;;;;;7.50;4.85;;;;;;;22.30;100.00;95538.47;5028627;28;20084;-57
2021/08/07 05:23:19;;;;;;;9.70;5.07;;;;;;;22.63;100.00;95534.19;5029064;28;20842;-55
2021/08/07 05:25:47;;;;;;;11.90;5.32;;;;;;;25.45;89.33;95528.34;5034742;28;20084;-56
2021/08/07 05:28:17;;;;;;;9.25;5.07;;;;;;;26.95;70.28;95529.38;5029382;28;20056;-57
2021/08/07 05:30:45;;;;;;;5.80;4.28;;;;;;;28.12;59.40;95517.50;5014378;28;20088;-54
2021/08/07 05:33:14;;;;;;;5.63;4.15;;;;;;;26.15;73.25;95513.56;5007985;28;20454;-55
2021/08/07 05:35:42;;;;;;;8.85;4.55;;;;;;;26.96;66.52;95506.66;5011590;28;20070;-56
2021/08/07 05:38:11;;;;;;;8.35;4.18;;;;;;;28.09;57.89;95499.88;5021550;28;20559;-57
2021/08/07 05:40:39;;;;;;;6.05;4.30;;;;;;;26.00;73.07;95505.41;5032185;28;20195;-54
2021/08/07 05:43:08;;;;;;;6.13;3.95;;;;;;;25.46;80.24;95505.69;5023659;28;20072;-53
2021/08/07 05:45:37;;;;;;;6.40;4.20;;;;;;;26.30;76.20;95506.56;5023544;28;20057;-55
2021/08/07 05:48:06;;;;;;;6.90;3.90;;;;;;;25.97;77.11;95511.34;5015568;28;20077;-52
2021/08/07 05:50:35;;;;;;;5.10;4.30;;;;;;;25.82;79.05;95514.00;5008115;28;20080;-55
2021/08/07 05:53:03;;;;;;;6.32;4.13;;;;;;;26.67;75.51;95512.59;5034672;28;20084;-56
2021/08/07 05:55:32;;;;;;;8.48;4.35;;;;;;;24.68;93.47;95503.50;5026396;28;20095;-58
2021/08/07 05:58:03;;;;;;;9.52;4.18;;;;;;;24.13;100.00;95501.88;5029527;28;20069;-58
2021/08/07 06:00:31;;;;;;;7.05;3.75;;;;;;;24.69;99.83;95499.75;5008197;28;20472;-58
2021/08/07 06:03:01;;;;;;;5.13;3.75;;;;;;;24.20;100.00;95509.78;5012064;28;20115;-54
2021/08/07 06:05:30;;;;;;;5.40;3.85;;;;;;;25.14;92.22;95516.56;5038317;28;20077;-56
2021/08/07 06:07:58;;;;;;;4.80;3.55;;;;;;;25.60;88.97;95514.13;5032610;28;20099;-57
2021/08/07 06:10:26;;;;;;;6.10;3.95;;;;;;;25.72;86.27;95520.94;5029525;28;20445;-55
2021/08/07 06:12:55;;;;;;;5.72;3.70;;;;;;;26.33;80.82;95516.84;5027933;28;20651;-55
2021/08/07 06:15:24;;;;;;;6.32;3.72;;;;;;;26.61;74.03;95521.78;5029879;28;20061;-57
2021/08/07 06:17:52;;;;;;;6.68;3.92;;;;;;;26.75;76.03;95535.59;5026013;28;20071;-56
2021/08/07 06:20:23;;;;;;;6.43;3.58;;;;;;;25.41;83.13;95532.66;5025570;28;20084;-58
2021/08/07 06:22:51;;;;;;;5.25;3.83;;;;;;;26.21;76.41;95519.78;5028408;28;20114;-55
2021/08/07 06:25:20;;;;;;;7.30;3.42;;;;;;;26.05;74.03;95508.13;5021676;28;20472;-57
2021/08/07 06:27:53;;;;;;;4.72;3.05;;;;;;;25.73;81.45;95505.53;5028399;28;20060;-59
2021/08/07 06:30:23;;;;;;;5.72;3.30;;;;;;;26.45;75.46;95477.66;5023666;28;20092;-55
2021/08/07 06:32:52;;;;;;;5.47;3.40;;;;;;;26.09;80.75;95487.59;5022509;28;20065;-56
2021/08/07 06:35:22;;;;;;;4.25;3.67;;;;;;;25.25;87.69;95488.56;5021949;28;20065;-59
2021/08/07 06:37:51;;;;;;;7.13;3.75;;;;;;;26.87;74.24;95500.94;5023239;28;20719;-55
2021/08/07 06:40:21;;;;;;;5.05;3.25;;;;;;;26.66;78.18;95499.34;5023262;28;20061;-59
2021/08/07 06:42:49;;;;;;;5.53;3.63;;;;;;;26.45;79.44;95499.28;5030373;28;20057;-54
2021/08/07 06:45:18;;;;;;;5.28;3.38;;;;;;;26.50;74.92;95507.44;5021781;28;20412;-53
2021/08/07 06:47:46;;;;;;;4.68;3.42;;;;;;;26.65;74.14;95492.31;5027399;28;20073;-52
2021/08/07 06:50:15;;;;;;;3.87;3.13;;;;;;;26.17;83.15;95497.88;5029152;28;20073;-55
2021/08/07 06:52:45;;;;;;;5.05;3.33;;;;;;;26.89;78.08;95500.69;5027179;28;20081;-55
2021/08/07 06:55:14;;;;;;;5.88;3.60;;;;;;;25.65;87.38;95509.56;5022378;28;20116;-56
2021/08/07 06:57:43;;;;;;;6.78;3.42;;;;;;;27.81;69.39;95501.38;5025192;28;20128;-52
2021/08/07 07:00:12;;;;;;;4.60;3.40;;;;;;;27.05;71.72;95499.59;5020122;28;20103;-56
2021/08/07 07:02:41;;;;;;;6.20;3.30;;;;;;;28.27;64.73;95506.56;5017471;28;20562;-55
2021/08/07 07:05:11;;;;;;;3.88;3.03;;;;;;;27.57;67.33;95516.59;5024353;28;20707;-54
2021/08/07 07:07:40;;;;;;;4.33;3.13;;;;;;;27.07;74.44;95519.06;5027436;28;20061;-55
2021/08/07 07:10:12;;;;;;;4.88;3.20;;;;;;;27.91;65.35;95514.06;5026208;28;20084;-57
2021/08/07 07:12:41;;;;;;;4.18;2.95;;;;;;;29.61;55.18;95495.47;5029398;28;20072;-53
2021/08/07 07:15:10;;;;;;;5.13;3.22;;;;;;;29.17;59.82;95478.22;5030783;28;20072;-52
2021/08/07 07:17:38;;;;;;;5.05;3.05;;;;;;;28.16;61.30;95473.28;5029003;28;20598;-54
2021/08/07 07:20:08;;;;;;;5.53;3.28;;;;;;;28.52;60.91;95470.34;5027580;28;20083;-54
2021/08/07 07:22:37;;;;;;;5.35;3.00;;;;;;;27.56;70.51;95480.56;5025900;28;20560;-53
2021/08/07 07:25:07;;;;;;;4.32;2.60;;;;;;;27.75;64.39;95494.31;5029383;28;20076;-55
2021/08/07 07:27:37;;;;;;;6.65;2.70;;;;;;;27.07;71.45;95489.31;5028838;28;20084;-51
2021/08/07 07:30:07;;;;;;;3.80;2.60;;;;;;;28.53;60.12;95484.75;5021073;28;20457;-58
2021/08/07 07:32:36;;;;;;;4.80;3.00;;;;;;;27.39;64.02;95482.78;5007444;28;20066;-52
2021/08/07 07:35:05;;;;;;;4.53;2.50;;;;;;;29.17;57.07;95480.16;5007076;28;20074;-56
2021/08/07 07:37:33;;;;;;;4.67;2.67;;;;;;;27.45;67.94;95477.06;5029152;28;20073;-55
2021/08/07 07:40:02;;;;;;;3.58;2.60;;;;;;;27.80;63.71;95485.38;5023027;28;21068;-54
2021/08/07 07:42:31;;;;;;;4.03;2.60;;;;;;;27.33;68.65;95484.69;5026403;28;20065;-54
2021/08/07 07:45:01;;;;;;;4.90;2.67;;;;;;;28.68;60.03;95476.47;5031885;28;20069;-53
2021/08/07 07:47:29;;;;;;;4.40;2.60;;;;;;;29.06;56.77;95474.81;5027373;28;20103;-56
2021/08/07 07:49:57;;;;;;;5.70;2.60;;;;;;;29.38;56.46;95472.59;5009200;28;20088;-54
2021/08/07 07:52:26;;;;;;;4.10;2.50;;;;;;;28.56;60.75;95476.00;5006088;28;20065;-54
2021/08/07 07:54:54;;;;;;;4.95;2.47;;;;;;;27.29;71.97;95472.81;5020800;28;20080;-50
2021/08/07 07:57:23;;;;;;;4.43;2.70;;;;;;;28.92;57.44;95451.31;5029211;28;20076;-57
2021/08/07 07:59:51;;;;;;;5.05;2.60;;;;;;;29.17;60.51;95458.41;5026986;28;20069;-51
2021/08/07 08:02:21;;;;;;;3.17;2.40;;;;;;;28.73;61.61;95456.63;5029202;28;20089;-52
2021/08/07 08:04:49;;;;;;;;;;;;;;;29.53;60.00;95456.94;5010897;28;20094;-51
2021/08/07 08:07:18;;;;;;;2.60;2.05;;;;;;;29.96;54.86;95454.25;5007641;28;19961;-50
2021/08/07 08:09:46;;;;;;;4.32;2.60;;;;;;;28.93;57.86;95456.44;5016670;28;20135;-54
2021/08/07 08:12:15;;;;;;;3.70;2.30;;;;;;;28.57;58.01;95459.47;5023472;28;20064;-51
2021/08/07 08:14:43;;;;;;;4.38;2.40;;;;;;;28.29;65.87;95458.28;5025544;28;20550;-52
2021/08/07 08:17:12;;;;;;;4.80;2.55;;;;;;;28.90;62.58;95453.50;5027109;28;20081;-56
2021/08/07 08:19:42;;;;;;;5.03;2.20;;;;;;;29.10;60.14;95454.13;5028642;28;20469;-54
2021/08/07 08:22:10;;;;;;;3.10;2.20;;;;;;;31.23;51.32;95453.41;5028518;28;20554;-54
2021/08/07 08:24:39;;;;;;;4.07;2.38;;;;;;;29.75;54.39;95453.72;5013137;28;20065;-55
2021/08/07 08:27:07;;;;;;;5.10;2.30;;;;;;;30.28;52.35;95455.47;5014291;28;20127;-54
2021/08/07 08:29:36;;;;;;;3.20;2.25;;;;;;;29.84;52.54;95461.25;5028570;28;20073;-53
2021/08/07 08:32:05;;;;;;;2.45;2.05;;;;;;;29.98;49.43;95454.78;5028140;28;20521;-53
2021/08/07 08:34:33;;;;;;;3.58;2.30;;;;;;;32.48;44.16;95448.69;5025691;28;20064;-52
2021/08/07 08:37:03;;;;;;;4.90;2.00;;;;;;;31.02;48.84;95439.34;5026493;28;20084;-55
2021/08/07 08:39:33;;;;;;;;;;;;;;;31.66;47.36;95442.25;5028278;28;20077;-53
2021/08/07 08:42:01;;;;;;;2.22;1.80;;;;;;;29.51;51.23;95442.03;5024745;28;19956;-53
2021/08/07 08:44:30;;;;;;;3.75;1.95;;;;;;;29.99;50.70;95442.00;5026658;28;20092;-53
2021/08/07 08:46:58;;;;;;;3.88;2.40;;;;;;;29.58;52.34;95437.03;5031497;28;20084;-58
2021/08/07 08:49:28;;;;;;;2.50;1.92;;;;;;;29.72;51.48;95448.06;5030569;28;20060;-49
2021/08/07 08:52:01;;;;;;;3.78;2.40;;;;;;;30.70;47.67;95432.78;5022886;28;20069;-54
2021/08/07 08:54:30;;;;;;;2.97;2.00;;;;;;;30.31;50.35;95433.13;5027670;28;20402;-54
2021/08/07 08:56:59;;;;;;;;;;;;;;;30.98;45.30;95422.00;5027132;28;20065;-51
2021/08/07 08:59:27;;;;;;;2.90;2.13;;;;;;;31.50;45.12;95419.16;5024202;28;19956;-51
2021/08/07 09:01:56;;;;;;;3.80;1.98;;;;;;;30.18;47.99;95425.69;5028437;28;22017;-53
2021/08/07 09:04:26;;;;;;;3.35;2.00;;;;;;;30.78;44.91;95415.00;5053144;28;20503;-51
2021/08/07 09:06:55;;;;;;;6.25;2.15;;;;;;;30.40;44.34;95412.31;5023849;28;20057;-57
2021/08/07 09:09:37;;;;;;;3.10;1.90;;;;;;;30.00;45.11;95410.97;5021755;28;20077;-54
2021/08/07 09:12:06;;;;;;;3.45;2.10;;;;;;;29.96;45.62;95416.19;5025980;28;20076;-55
2021/08/07 09:14:37;;;;;;;3.25;1.90;;;;;;;32.28;40.13;95418.03;5025557;28;20069;-54
2021/08/07 09:17:15;;;;;;;3.83;2.15;;;;;;;31.66;42.07;95434.09;5027345;28;20045;-53
2021/08/07 09:19:55;;;;;;;3.83;2.20;;;;;;;31.09;44.25;95426.13;5004977;28;20402;-55
2021/08/07 09:22:26;;;;;;;4.78;1.88;;;;;;;30.60;43.86;95416.63;5020064;28;20434;-55
2021/08/07 09:25:07;;;;;;;3.60;1.83;;;;;;;31.11;42.42;95414.94;5030061;28;20069;-51
2021/08/07 09:27:38;;;;;;;4.35;1.95;;;;;;;29.72;43.89;95407.28;5036148;28;20068;-51
2021/08/07 09:30:25;;;;;;;2.92;1.83;;;;;;;30.41;42.38;95413.91;5033825;28;20072;-55
2021/08/07 09:32:55;;;;;;;4.30;2.30;;;;;;;32.27;40.61;95410.13;5026842;28;20068;-57
2021/08/07 09:35:26;;;;;;;3.63;1.75;;;;;;;31.57;40.94;95408.63;5036767;28;20073;-54
2021/08/07 09:38:12;;;;;;;2.55;1.73;;;;;;;30.13;44.38;95402.09;5019227;28;20080;-54
2021/08/07 09:40:45;;;;;;;3.42;1.85;;;;;;;30.62;43.82;95400.78;5033003;28;20065;-56
2021/08/07 09:43:15;;;;;;;5.05;2.00;;;;;;;31.23;43.45;95392.66;5026256;28;20037;-55
2021/08/07 09:45:44;;;;;;;2.88;1.98;;;;;;;31.00;43.28;95397.19;5030977;28;20057;-53
2021/08/07 09:48:15;;;;;;;3.17;1.80;;;;;;;30.26;45.92;95392.41;5037029;28;20076;-59
2021/08/07 09:50:44;;;;;;;3.38;2.03;;;;;;;31.59;43.96;95399.06;5035974;28;20471;-58
2021/08/07 09:53:20;;;;;;;3.70;2.17;;;;;;;30.70;45.57;95391.16;5033134;28;20075;-53
2021/08/07 09:56:04;;;;;;;3.72;2.30;;;;;;;30.56;42.97;95401.16;5038166;28;20463;-48
2021/08/07 09:58:33;;;;;;;3.00;1.98;;;;;;;30.46;43.08;95397.53;5039763;28;20069;-47
2021/08/07 10:01:02;;;;;;;2.67;1.92;;;;;;;30.22;43.24;95384.03;5037181;28;20076;-55
2021/08/07 10:03:33;;;;;;;3.05;1.98;;;;;;;30.97;42.93;95385.78;5032994;28;20076;-54
2021/08/07 10:06:19;;;;;;;3.10;2.10;;;;;;;30.50;42.56;95386.88;5033650;28;20472;-53
2021/08/07 10:08:50;;;;;;;2.63;1.90;;;;;;;30.91;42.73;95373.38;5033745;28;20103;-53
2021/08/07 10:11:20;;;;;;;4.82;2.05;;;;;;;30.55;41.85;95369.63;5040833;28;20088;-57
2021/08/07 10:13:50;;;;;;;2.80;2.20;;;;;;;30.12;42.81;95361.59;5039076;28;20077;-58
2021/08/07 10:16:19;;;;;;;2.50;1.70;;;;;;;30.07;43.07;95362.47;5025334;28;20068;-50
2021/08/07 10:18:49;;;;;;;3.22;2.22;;;;;;;30.68;42.46;95349.81;5025842;28;20456;-53
2021/08/07 10:21:18;;;;;;;2.97;2.08;;;;;;;31.04;42.65;95360.06;5038265;28;20080;-52
2021/08/07 10:23:47;;;;;;;2.60;2.40;;;;;;;31.48;41.51;95355.94;5039715;28;20066;-52
2021/08/07 10:26:19;;;;;;;3.00;2.10;;;;;;;31.99;41.24;95352.94;5037963;28;20080;-55
2021/08/07 10:28:53;;;;;;;4.03;2.38;;;;;;;31.19;43.23;95366.03;5032459;28;20613;-56
2021/08/07 10:31:24;;;;;;;4.45;2.33;;;;;;;30.56;44.44;95355.75;5035739;28;20034;-55
2021/08/07 10:33:54;;;;;;;4.20;2.20;;;;;;;30.60;46.09;95358.69;5038042;28;20061;-56
2021/08/07 10:36:25;;;;;;;4.28;2.50;;;;;;;29.74;47.64;95350.75;5040872;28;20576;-55
2021/08/07 10:38:57;;;;;;;5.97;2.53;;;;;;;30.16;45.46;95349.84;5035642;28;20060;-53
2021/08/07 10:41:28;;;;;;;3.75;2.33;;;;;;;31.28;43.88;95357.13;5031518;28;20037;-57
2021/08/07 10:43:59;;;;;;;5.53;2.58;;;;;;;31.21;43.74;95355.66;5018477;28;20511;-54
2021/08/07 10:46:28;;;;;;;3.55;2.33;;;;;;;30.12;47.25;95353.44;5037185;28;20072;-55
2021/08/07 10:48:56;;;;;;;3.80;2.17;;;;;;;29.99;48.04;95350.38;5033997;28;20060;-51
2021/08/07 10:51:33;;;;;;;2.85;2.15;;;;;;;30.45;46.08;95355.09;5032541;28;20142;-53
2021/08/07 10:54:05;;;;;;;4.80;2.50;;;;;;;31.04;42.79;95346.44;5033790;28;20107;-54
2021/08/07 10:56:39;;;;;;;3.95;2.53;;;;;;;30.45;43.99;95338.75;5035895;28;20066;-57
2021/08/07 10:59:23;;;;;;;3.88;2.47;;;;;;;30.14;45.25;95338.44;5038743;28;20488;-53
2021/08/07 11:01:53;;;;;;;3.17;2.20;;;;;;;30.24;45.04;95340.22;5035392;28;20079;-52
2021/08/07 11:04:28;;;;;;;3.05;2.30;;;;;;;31.09;43.45;95344.44;5034114;28;20064;-56
2021/08/07 11:07:01;;;;;;;4.10;2.60;;;;;;;31.41;42.55;95338.09;5035159;28;20463;-53
2021/08/07 11:09:35;;;;;;;3.88;2.20;;;;;;;32.08;44.25;95326.56;5039210;28;20516;-56
2021/08/07 11:12:20;;;;;;;4.63;2.50;;;;;;;30.77;44.66;95334.44;5034694;28;20518;-58
2021/08/07 11:14:55;;;;;;;3.75;2.30;;;;;;;32.33;41.71;95327.03;5028668;28;20061;-53
2021/08/07 11:17:42;;;;;;;3.33;2.50;;;;;;;31.22;42.90;95312.88;5034563;28;20087;-54
2021/08/07 11:20:14;;;;;;;5.15;2.67;;;;;;;31.68;42.10;95314.63;5036191;28;20077;-54
2021/08/07 11:23:15;;;;;;;4.13;2.45;;;;;;;32.33;40.02;95313.41;5037791;28;20508;-52
2021/08/07 11:26:08;;;;;;;3.42;2.25;;;;;;;33.14;39.82;95312.38;5030975;28;20315;-56
2021/08/07 11:29:05;;;;;;;2.65;2.10;;;;;;;32.52;39.92;95308.59;5021124;28;20117;-52
2021/08/07 11:31:35;;;;;;;4.72;2.53;;;;;;;32.03;41.06;95301.31;5038449;28;20065;-56
2021/08/07 11:34:26;;;;;;;2.85;2.05;;;;;;;32.21;39.31;95303.06;5036831;28;20060;-53
2021/08/07 11:37:14;;;;;;;5.07;2.50;;;;;;;33.23;40.00;95294.91;5031931;28;20069;-53
2021/08/07 11:40:14;;;;;;;4.00;2.67;;;;;;;33.17;39.33;95290.69;5033753;28;20072;-49
2021/08/07 11:42:48;;;;;;;4.07;2.70;;;;;;;33.00;38.03;95285.19;5035321;28;20168;-48
2021/08/07 11:45:20;;;;;;;3.25;2.45;;;;;;;33.52;37.46;95279.91;5041856;28;20076;-54
2021/08/07 11:47:52;;;;;;;3.45;2.25;;;;;;;32.26;38.95;95275.63;5043764;28;20097;-57